createdAt,value
2023-01-06T00:00:15.028Z,7.61
2023-01-06T00:01:15.112Z,7.57
2023-01-06T00:02:14.998Z,7.55
2023-01-06T00:03:14.986Z,7.55
2023-01-06T00:04:15.037Z,7.54
2023-01-06T00:05:14.995Z,7.50
2023-01-06T00:06:14.946Z,7.55
2023-01-06T00:07:14.934Z,7.50
2023-01-06T00:08:14.937Z,7.47
2023-01-06T00:09:14.916Z,7.50
2023-01-06T00:10:14.924Z,7.47
2023-01-06T00:11:14.916Z,7.49
2023-01-06T00:12:14.874Z,7.47
2023-01-06T00:13:14.867Z,7.50
2023-01-06T00:14:14.848Z,7.40
2023-01-06T00:15:14.864Z,7.43
2023-01-06T00:16:14.876Z,7.34
2023-01-06T00:17:14.937Z,7.33
2023-01-06T00:18:14.804Z,7.29
2023-01-06T00:19:14.805Z,7.28
2023-01-06T00:20:14.810Z,7.31
2023-01-06T00:21:14.791Z,7.33
2023-01-06T00:22:14.763Z,7.25
2023-01-06T00:23:14.758Z,7.31
2023-01-06T00:24:14.740Z,7.29
2023-01-06T00:25:14.763Z,7.33
2023-01-06T00:26:14.746Z,7.22
2023-01-06T00:27:14.706Z,7.22
2023-01-06T00:28:14.692Z,7.31
2023-01-06T00:29:14.709Z,7.19
2023-01-06T00:30:14.672Z,7.24
2023-01-06T00:31:14.726Z,7.21
2023-01-06T00:32:14.653Z,7.24
2023-01-06T00:33:14.756Z,7.29
2023-01-06T00:34:14.673Z,7.26
2023-01-06T00:35:14.630Z,7.16
2023-01-06T00:36:14.614Z,7.21
2023-01-06T00:37:14.597Z,7.15
2023-01-06T00:38:14.610Z,7.22
2023-01-06T00:39:14.600Z,7.21
2023-01-06T00:40:14.561Z,7.11
2023-01-06T00:41:14.557Z,7.15
2023-01-06T00:42:14.548Z,7.13
2023-01-06T00:43:14.537Z,7.13
2023-01-06T00:44:14.545Z,7.19
2023-01-06T00:45:14.537Z,7.24
2023-01-06T00:46:14.512Z,7.15
2023-01-06T00:47:14.488Z,7.18
2023-01-06T00:48:14.505Z,7.22
2023-01-06T00:49:14.604Z,7.11
2023-01-06T00:50:14.451Z,7.16
2023-01-06T00:51:14.448Z,7.16
2023-01-06T00:52:14.428Z,7.16
2023-01-06T00:53:14.447Z,7.07
2023-01-06T00:54:14.427Z,7.21
2023-01-06T00:55:14.400Z,7.11
2023-01-06T00:56:14.390Z,7.15
2023-01-06T00:57:14.379Z,7.13
2023-01-06T00:58:14.391Z,7.04
2023-01-06T00:59:14.373Z,7.03
2023-01-06T01:00:14.347Z,7.06
2023-01-06T01:01:14.430Z,7.21
2023-01-06T01:02:14.539Z,7.04
2023-01-06T01:03:14.343Z,7.01
2023-01-06T01:04:14.325Z,7.21
2023-01-06T01:05:14.406Z,7.04
2023-01-06T01:06:14.271Z,7.07
2023-01-06T01:07:14.269Z,7.07
2023-01-06T01:08:14.256Z,7.03
2023-01-06T01:09:14.264Z,7.03
2023-01-06T01:10:14.234Z,7.01
2023-01-06T01:11:14.228Z,7.11
2023-01-06T01:12:14.219Z,7.07
2023-01-06T01:13:14.200Z,7.10
2023-01-06T01:14:14.212Z,7.00
2023-01-06T01:15:14.187Z,7.07
2023-01-06T01:16:14.173Z,7.04
2023-01-06T01:17:14.179Z,6.92
2023-01-06T01:18:14.146Z,7.07
2023-01-06T01:19:14.140Z,7.10
2023-01-06T01:20:14.129Z,7.07
2023-01-06T01:21:14.232Z,7.01
2023-01-06T01:22:14.135Z,7.07
2023-01-06T01:23:14.098Z,7.04
2023-01-06T01:24:14.084Z,7.03
2023-01-06T01:25:14.077Z,7.01
2023-01-06T01:26:14.060Z,7.00
2023-01-06T01:27:14.076Z,7.07
2023-01-06T01:28:14.038Z,7.06
2023-01-06T01:29:14.033Z,6.96
2023-01-06T01:30:14.019Z,7.03
2023-01-06T01:31:14.088Z,7.03
2023-01-06T01:32:14.023Z,6.97
2023-01-06T01:33:13.991Z,7.00
2023-01-06T01:34:13.983Z,7.00
2023-01-06T01:35:13.969Z,6.99
2023-01-06T01:36:13.954Z,7.00
2023-01-06T01:37:14.077Z,6.92
2023-01-06T01:38:13.952Z,6.92
2023-01-06T01:39:13.928Z,6.99
2023-01-06T01:40:13.915Z,6.96
2023-01-06T01:41:13.909Z,7.01
2023-01-06T01:42:13.891Z,6.93
2023-01-06T01:43:13.905Z,6.96
2023-01-06T01:44:13.870Z,6.97
2023-01-06T01:45:13.868Z,6.99
2023-01-06T01:46:13.884Z,6.97
2023-01-06T01:47:13.848Z,7.01
2023-01-06T01:48:13.852Z,6.97
2023-01-06T01:49:13.819Z,6.97
2023-01-06T01:50:13.807Z,6.97
2023-01-06T01:51:13.799Z,6.92
2023-01-06T01:52:13.781Z,6.92
2023-01-06T01:53:13.917Z,6.97
2023-01-06T01:54:13.771Z,6.97
2023-01-06T01:55:13.756Z,6.97
2023-01-06T01:56:13.739Z,6.88
2023-01-06T01:57:13.749Z,7.01
2023-01-06T01:58:13.741Z,6.91
2023-01-06T01:59:13.716Z,7.03
2023-01-06T02:00:13.699Z,6.97
2023-01-06T02:01:13.787Z,6.93
2023-01-06T02:02:13.833Z,6.88
2023-01-06T02:03:13.745Z,6.91
2023-01-06T02:04:13.660Z,6.89
2023-01-06T02:05:13.648Z,6.99
2023-01-06T02:06:13.639Z,6.86
2023-01-06T02:07:13.624Z,6.86
2023-01-06T02:08:13.634Z,6.86
2023-01-06T02:09:13.736Z,6.85
2023-01-06T02:10:13.619Z,6.89
2023-01-06T02:11:13.581Z,6.86
2023-01-06T02:12:13.569Z,6.85
2023-01-06T02:13:13.564Z,6.85
2023-01-06T02:14:13.580Z,6.85
2023-01-06T02:15:13.566Z,6.83
2023-01-06T02:16:13.570Z,6.92
2023-01-06T02:17:13.518Z,6.82
2023-01-06T02:18:13.503Z,6.91
2023-01-06T02:19:13.531Z,6.89
2023-01-06T02:20:13.491Z,6.85
2023-01-06T02:21:13.478Z,6.91
2023-01-06T02:22:13.472Z,6.79
2023-01-06T02:23:13.453Z,6.85
2023-01-06T02:24:13.444Z,6.92
2023-01-06T02:25:13.595Z,6.92
2023-01-06T02:26:13.421Z,6.91
2023-01-06T02:27:13.414Z,6.89
2023-01-06T02:28:13.403Z,6.91
2023-01-06T02:29:13.391Z,6.93
2023-01-06T02:30:13.393Z,6.86
2023-01-06T02:31:13.448Z,6.92
2023-01-06T02:32:13.360Z,6.92
2023-01-06T02:33:13.351Z,6.91
2023-01-06T02:34:13.335Z,6.85
2023-01-06T02:35:13.335Z,6.89
2023-01-06T02:36:13.334Z,6.88
2023-01-06T02:37:13.305Z,6.91
2023-01-06T02:38:13.290Z,6.89
2023-01-06T02:39:13.283Z,6.97
2023-01-06T02:40:13.267Z,6.89
2023-01-06T02:41:13.398Z,6.86
2023-01-06T02:42:13.246Z,6.99
2023-01-06T02:43:13.242Z,6.91
2023-01-06T02:44:13.225Z,6.97
2023-01-06T02:45:13.216Z,6.96
2023-01-06T02:46:13.285Z,6.96
2023-01-06T02:47:13.205Z,6.88
2023-01-06T02:48:13.200Z,6.93
2023-01-06T02:49:13.179Z,6.99
2023-01-06T02:50:13.159Z,6.97
2023-01-06T02:51:13.179Z,6.96
2023-01-06T02:52:13.140Z,7.01
2023-01-06T02:53:13.135Z,7.00
2023-01-06T02:54:13.149Z,6.97
2023-01-06T02:55:13.114Z,7.03
2023-01-06T02:56:13.102Z,6.97
2023-01-06T02:57:13.199Z,6.89
2023-01-06T02:58:13.075Z,6.99
2023-01-06T02:59:13.101Z,6.89
2023-01-06T03:00:13.055Z,6.89
2023-01-06T03:01:13.077Z,7.00
2023-01-06T03:02:13.082Z,6.96
2023-01-06T03:03:13.031Z,6.92
2023-01-06T03:04:13.086Z,6.96
2023-01-06T03:05:13.001Z,6.99
2023-01-06T03:06:12.998Z,7.00
2023-01-06T03:07:12.998Z,6.92
2023-01-06T03:08:12.990Z,6.99
2023-01-06T03:09:12.979Z,7.00
2023-01-06T03:10:12.945Z,6.99
2023-01-06T03:11:12.957Z,7.01
2023-01-06T03:12:12.929Z,6.97
2023-01-06T03:13:13.052Z,6.93
2023-01-06T03:14:12.903Z,7.00
2023-01-06T03:15:12.909Z,6.93
2023-01-06T03:16:12.938Z,6.96
2023-01-06T03:17:12.877Z,6.96
2023-01-06T03:18:12.892Z,6.96
2023-01-06T03:19:12.854Z,7.00
2023-01-06T03:20:12.851Z,6.96
2023-01-06T03:21:12.836Z,7.00
2023-01-06T03:22:12.833Z,6.96
2023-01-06T03:23:12.804Z,6.99
2023-01-06T03:24:12.818Z,7.00
2023-01-06T03:25:12.791Z,6.99
2023-01-06T03:26:12.774Z,6.92
2023-01-06T03:27:12.787Z,7.01
2023-01-06T03:28:12.756Z,6.97
2023-01-06T03:29:12.865Z,7.00
2023-01-06T03:30:12.733Z,6.96
2023-01-06T03:31:12.814Z,6.97
2023-01-06T03:32:12.725Z,6.97
2023-01-06T03:33:12.693Z,7.00
2023-01-06T03:34:12.681Z,6.97
2023-01-06T03:35:12.697Z,7.00
2023-01-06T03:36:12.668Z,7.00
2023-01-06T03:37:12.647Z,7.00
2023-01-06T03:38:12.644Z,6.97
2023-01-06T03:39:12.641Z,6.96
2023-01-06T03:40:12.624Z,7.00
2023-01-06T03:41:12.650Z,6.97
2023-01-06T03:42:24.518Z,7.01
2023-01-06T03:43:13.604Z,7.01
2023-01-06T03:44:12.574Z,6.99
2023-01-06T03:45:12.685Z,7.00
2023-01-06T03:46:12.584Z,7.01
2023-01-06T03:47:12.544Z,6.99
2023-01-06T03:48:12.546Z,6.99
2023-01-06T03:49:12.525Z,7.03
2023-01-06T03:50:12.522Z,7.04
2023-01-06T03:51:12.505Z,7.06
2023-01-06T03:52:12.532Z,7.03
2023-01-06T03:53:12.474Z,7.01
2023-01-06T03:54:12.467Z,7.03
2023-01-06T03:55:12.473Z,6.99
2023-01-06T03:56:12.465Z,7.00
2023-01-06T03:57:12.432Z,6.97
2023-01-06T03:58:12.420Z,7.06
2023-01-06T03:59:12.407Z,6.96
2023-01-06T04:00:12.423Z,7.07
2023-01-06T04:01:12.675Z,7.03
2023-01-06T04:02:12.378Z,6.93
2023-01-06T04:03:12.359Z,7.00
2023-01-06T04:04:12.354Z,7.04
2023-01-06T04:05:12.367Z,7.08
2023-01-06T04:06:12.334Z,7.03
2023-01-06T04:07:12.321Z,7.07
2023-01-06T04:08:12.309Z,7.07
2023-01-06T04:09:12.299Z,7.07
2023-01-06T04:10:12.311Z,6.92
2023-01-06T04:11:12.276Z,7.04
2023-01-06T04:12:12.291Z,7.04
2023-01-06T04:13:12.250Z,7.06
2023-01-06T04:14:12.249Z,7.06
2023-01-06T04:15:12.232Z,7.07
2023-01-06T04:16:12.281Z,7.04
2023-01-06T04:17:13.691Z,6.97
2023-01-06T04:18:12.228Z,7.06
2023-01-06T04:19:12.185Z,6.97
2023-01-06T04:20:12.209Z,7.01
2023-01-06T04:21:12.163Z,7.03
2023-01-06T04:22:12.156Z,7.13
2023-01-06T04:23:12.145Z,7.06
2023-01-06T04:24:12.145Z,7.03
2023-01-06T04:25:12.146Z,7.00
2023-01-06T04:26:12.113Z,7.08
2023-01-06T04:27:12.100Z,7.10
2023-01-06T04:28:12.093Z,7.06
2023-01-06T04:29:12.110Z,7.03
2023-01-06T04:30:12.103Z,7.06
2023-01-06T04:31:12.131Z,7.11
2023-01-06T04:32:12.042Z,7.10
2023-01-06T04:33:12.148Z,7.08
2023-01-06T04:34:12.043Z,7.03
2023-01-06T04:35:12.038Z,7.03
2023-01-06T04:36:12.001Z,7.11
2023-01-06T04:37:11.989Z,7.07
2023-01-06T04:38:11.983Z,7.18
2023-01-06T04:39:11.986Z,7.08
2023-01-06T04:40:11.978Z,7.03
2023-01-06T04:41:11.948Z,7.04
2023-01-06T04:42:11.941Z,7.04
2023-01-06T04:43:11.920Z,7.13
2023-01-06T04:44:11.936Z,7.15
2023-01-06T04:45:11.900Z,7.04
2023-01-06T04:46:11.916Z,7.15
2023-01-06T04:47:11.877Z,7.10
2023-01-06T04:48:11.893Z,7.18
2023-01-06T04:49:11.966Z,7.08
2023-01-06T04:50:11.845Z,7.15
2023-01-06T04:51:11.830Z,7.15
2023-01-06T04:52:11.825Z,7.13
2023-01-06T04:53:11.831Z,7.15
2023-01-06T04:54:11.805Z,7.21
2023-01-06T04:55:11.786Z,7.16
2023-01-06T04:56:11.806Z,7.18
2023-01-06T04:57:11.768Z,7.16
2023-01-06T04:58:11.764Z,7.15
2023-01-06T04:59:11.761Z,7.13
2023-01-06T05:00:11.736Z,7.11
2023-01-06T05:01:11.863Z,7.16
2023-01-06T05:02:11.720Z,7.10
2023-01-06T05:03:11.702Z,7.19
2023-01-06T05:04:11.743Z,7.08
2023-01-06T05:05:11.798Z,7.16
2023-01-06T05:06:11.681Z,7.16
2023-01-06T05:07:11.692Z,7.13
2023-01-06T05:08:11.647Z,7.10
2023-01-06T05:09:11.635Z,7.21
2023-01-06T05:10:11.642Z,7.13
2023-01-06T05:11:11.615Z,7.18
2023-01-06T05:12:11.612Z,7.16
2023-01-06T05:13:11.612Z,7.16
2023-01-06T05:14:11.586Z,7.16
2023-01-06T05:15:11.584Z,7.21
2023-01-06T05:16:11.596Z,7.15
2023-01-06T05:17:11.573Z,7.19
2023-01-06T05:18:11.546Z,7.21
2023-01-06T05:19:11.536Z,7.15
2023-01-06T05:20:11.530Z,7.22
2023-01-06T05:21:11.637Z,7.22
2023-01-06T05:22:11.524Z,7.19
2023-01-06T05:23:11.486Z,7.16
2023-01-06T05:24:11.475Z,7.16
2023-01-06T05:25:11.469Z,7.19
2023-01-06T05:26:11.455Z,7.11
2023-01-06T05:27:11.463Z,7.19
2023-01-06T05:28:11.475Z,7.22
2023-01-06T05:29:11.432Z,7.15
2023-01-06T05:30:11.412Z,7.19
2023-01-06T05:31:11.405Z,7.21
2023-01-06T05:32:11.429Z,7.21
2023-01-06T05:33:11.378Z,7.19
2023-01-06T05:34:11.364Z,7.26
2023-01-06T05:35:11.351Z,7.16
2023-01-06T05:36:11.344Z,7.16
2023-01-06T05:37:11.446Z,7.28
2023-01-06T05:38:11.345Z,7.16
2023-01-06T05:39:11.309Z,7.22
2023-01-06T05:40:11.298Z,7.26
2023-01-06T05:41:11.283Z,7.19
2023-01-06T05:42:11.276Z,7.26
2023-01-06T05:43:11.279Z,7.21
2023-01-06T05:44:11.281Z,7.29
2023-01-06T05:45:11.262Z,7.21
2023-01-06T05:46:11.351Z,7.24
2023-01-06T05:47:11.225Z,7.18
2023-01-06T05:48:11.210Z,7.19
2023-01-06T05:49:11.207Z,7.10
2023-01-06T05:50:11.199Z,7.19
2023-01-06T05:51:11.206Z,7.26
2023-01-06T05:52:11.174Z,7.24
2023-01-06T05:53:11.283Z,7.18
2023-01-06T05:54:11.149Z,7.25
2023-01-06T05:55:11.139Z,7.26
2023-01-06T05:56:11.147Z,7.16
2023-01-06T05:57:11.114Z,7.26
2023-01-06T05:58:11.108Z,7.19
2023-01-06T05:59:11.098Z,7.21
2023-01-06T06:00:11.086Z,7.18
2023-01-06T06:01:11.117Z,7.28
2023-01-06T06:02:11.079Z,7.21
2023-01-06T06:03:11.049Z,7.24
2023-01-06T06:04:11.038Z,7.36
2023-01-06T06:05:11.027Z,7.26
2023-01-06T06:06:11.026Z,7.21
2023-01-06T06:07:11.024Z,7.24
2023-01-06T06:08:10.994Z,7.19
2023-01-06T06:09:11.096Z,7.25
2023-01-06T06:10:10.982Z,7.21
2023-01-06T06:11:10.960Z,7.22
2023-01-06T06:12:10.977Z,7.28
2023-01-06T06:13:10.958Z,7.24
2023-01-06T06:14:10.953Z,7.18
2023-01-06T06:15:10.937Z,7.22
2023-01-06T06:16:10.940Z,7.22
2023-01-06T06:17:10.913Z,7.24
2023-01-06T06:18:10.886Z,7.31
2023-01-06T06:19:10.875Z,7.25
2023-01-06T06:20:10.890Z,7.31
2023-01-06T06:21:10.856Z,7.22
2023-01-06T06:22:10.991Z,7.33
2023-01-06T06:23:10.834Z,7.29
2023-01-06T06:24:10.823Z,7.22
2023-01-06T06:25:10.950Z,7.24
2023-01-06T06:26:10.802Z,7.31
2023-01-06T06:27:10.805Z,7.22
2023-01-06T06:28:10.774Z,7.25
2023-01-06T06:29:10.763Z,7.22
2023-01-06T06:30:10.756Z,7.19
2023-01-06T06:31:10.828Z,7.34
2023-01-06T06:32:10.777Z,7.28
2023-01-06T06:33:10.719Z,7.19
2023-01-06T06:34:10.720Z,7.31
2023-01-06T06:35:10.699Z,7.29
2023-01-06T06:36:10.691Z,7.26
2023-01-06T06:37:12.533Z,7.25
2023-01-06T06:38:10.671Z,7.16
2023-01-06T06:39:10.656Z,7.26
2023-01-06T06:40:10.646Z,7.25
2023-01-06T06:41:10.764Z,7.21
2023-01-06T06:42:10.626Z,7.22
2023-01-06T06:43:10.643Z,7.25
2023-01-06T06:44:10.607Z,7.22
2023-01-06T06:45:10.591Z,7.21
2023-01-06T06:46:10.678Z,7.26
2023-01-06T06:47:10.574Z,7.28
2023-01-06T06:48:10.574Z,7.33
2023-01-06T06:49:10.570Z,7.31
2023-01-06T06:50:10.533Z,7.26
2023-01-06T06:51:10.526Z,7.24
2023-01-06T06:52:10.524Z,7.25
2023-01-06T06:53:10.539Z,7.24
2023-01-06T06:54:10.495Z,7.25
2023-01-06T06:55:10.482Z,7.28
2023-01-06T06:56:10.475Z,7.31
2023-01-06T06:57:10.589Z,7.25
2023-01-06T06:58:10.473Z,7.24
2023-01-06T06:59:10.463Z,7.26
2023-01-06T07:00:10.442Z,7.29
2023-01-06T07:01:10.609Z,7.18
2023-01-06T07:02:10.528Z,7.29
2023-01-06T07:03:10.415Z,7.25
2023-01-06T07:04:10.451Z,7.25
2023-01-06T07:05:10.372Z,7.28
2023-01-06T07:06:10.363Z,7.21
2023-01-06T07:07:10.356Z,7.19
2023-01-06T07:08:10.346Z,7.25
2023-01-06T07:09:10.359Z,7.24
2023-01-06T07:10:10.324Z,7.22
2023-01-06T07:11:10.309Z,7.31
2023-01-06T07:12:10.301Z,7.21
2023-01-06T07:13:10.411Z,7.19
2023-01-06T07:14:10.301Z,7.22
2023-01-06T07:15:10.266Z,7.31
2023-01-06T07:16:10.332Z,7.19
2023-01-06T07:17:10.250Z,7.24
2023-01-06T07:18:10.260Z,7.29
2023-01-06T07:19:10.222Z,7.25
2023-01-06T07:20:10.217Z,7.16
2023-01-06T07:21:10.209Z,7.25
2023-01-06T07:22:10.198Z,7.18
2023-01-06T07:23:10.199Z,7.33
2023-01-06T07:24:10.167Z,7.26
2023-01-06T07:25:10.161Z,7.22
2023-01-06T07:26:10.147Z,7.26
2023-01-06T07:27:10.144Z,7.22
2023-01-06T07:28:10.161Z,7.22
2023-01-06T07:29:10.237Z,7.31
2023-01-06T07:30:10.141Z,7.34
2023-01-06T07:31:10.151Z,7.26
2023-01-06T07:32:10.384Z,7.25
2023-01-06T07:33:10.070Z,7.36
2023-01-06T07:34:10.088Z,7.21
2023-01-06T07:35:10.073Z,7.28
2023-01-06T07:36:10.048Z,7.26
2023-01-06T07:37:10.025Z,7.26
2023-01-06T07:38:10.017Z,7.28
2023-01-06T07:39:10.011Z,7.33
2023-01-06T07:40:10.024Z,7.25
2023-01-06T07:41:10.019Z,7.31
2023-01-06T07:42:09.978Z,7.34
2023-01-06T07:43:09.984Z,7.25
2023-01-06T07:44:09.953Z,7.34
2023-01-06T07:45:10.052Z,7.33
2023-01-06T07:46:10.042Z,7.31
2023-01-06T07:47:09.916Z,7.26
2023-01-06T07:48:09.911Z,7.37
2023-01-06T07:49:09.905Z,7.28
2023-01-06T07:50:09.911Z,7.31
2023-01-06T07:51:09.878Z,7.33
2023-01-06T07:52:09.880Z,7.29
2023-01-06T07:53:09.856Z,7.24
2023-01-06T07:54:09.848Z,7.31
2023-01-06T07:55:09.848Z,7.28
2023-01-06T07:56:09.816Z,7.37
2023-01-06T07:57:09.834Z,7.26
2023-01-06T07:58:09.792Z,7.33
2023-01-06T07:59:09.789Z,7.28
2023-01-06T08:00:09.772Z,7.28
2023-01-06T08:01:09.936Z,7.34
2023-01-06T08:02:09.926Z,7.29
2023-01-06T08:03:09.794Z,7.43
2023-01-06T08:04:09.726Z,7.31
2023-01-06T08:05:09.719Z,7.26
2023-01-06T08:06:09.715Z,7.40
2023-01-06T08:07:09.752Z,7.40
2023-01-06T08:08:09.684Z,7.40
2023-01-06T08:09:09.690Z,7.40
2023-01-06T08:10:09.676Z,7.34
2023-01-06T08:11:09.654Z,7.40
2023-01-06T08:12:09.643Z,7.40
2023-01-06T08:13:09.670Z,7.43
2023-01-06T08:14:09.624Z,7.37
2023-01-06T08:15:09.615Z,7.43
2023-01-06T08:16:09.659Z,7.39
2023-01-06T08:17:09.702Z,7.40
2023-01-06T08:18:09.603Z,7.46
2023-01-06T08:19:09.570Z,7.40
2023-01-06T08:20:09.546Z,7.42
2023-01-06T08:21:09.549Z,7.42
2023-01-06T08:22:09.532Z,7.37
2023-01-06T08:23:09.543Z,7.46
2023-01-06T08:24:09.519Z,7.39
2023-01-06T08:25:09.504Z,7.47
2023-01-06T08:26:09.489Z,7.43
2023-01-06T08:27:09.498Z,7.43
2023-01-06T08:28:09.489Z,7.43
2023-01-06T08:29:09.447Z,7.46
2023-01-06T08:30:09.455Z,7.54
2023-01-06T08:31:09.581Z,7.46
2023-01-06T08:32:10.992Z,7.54
2023-01-06T08:33:09.521Z,7.49
2023-01-06T08:34:09.429Z,7.44
2023-01-06T08:35:09.387Z,7.50
2023-01-06T08:36:09.378Z,7.57
2023-01-06T08:37:09.382Z,7.52
2023-01-06T08:38:09.351Z,7.39
2023-01-06T08:39:09.370Z,7.42
2023-01-06T08:40:09.331Z,7.50
2023-01-06T08:41:09.346Z,7.49
2023-01-06T08:42:09.310Z,7.49
2023-01-06T08:43:09.319Z,7.43
2023-01-06T08:44:09.283Z,7.49
2023-01-06T08:45:09.273Z,7.44
2023-01-06T08:46:09.290Z,7.47
2023-01-06T08:47:09.256Z,7.52
2023-01-06T08:48:09.248Z,7.50
2023-01-06T08:49:09.359Z,7.54
2023-01-06T08:50:09.230Z,7.52
2023-01-06T08:51:09.241Z,7.50
2023-01-06T08:52:09.204Z,7.52
2023-01-06T08:53:09.209Z,7.50
2023-01-06T08:54:09.197Z,7.55
2023-01-06T08:55:09.168Z,7.55
2023-01-06T08:56:09.153Z,7.52
2023-01-06T08:57:09.213Z,7.50
2023-01-06T08:58:09.159Z,7.61
2023-01-06T08:59:09.133Z,7.62
2023-01-06T09:00:09.109Z,7.60
2023-01-06T09:01:09.123Z,7.55
2023-01-06T09:02:09.249Z,7.68
2023-01-06T09:03:09.106Z,7.57
2023-01-06T09:04:09.067Z,7.57
2023-01-06T09:05:09.231Z,7.66
2023-01-06T09:06:09.058Z,7.64
2023-01-06T09:07:09.055Z,7.58
2023-01-06T09:08:09.045Z,7.71
2023-01-06T09:09:09.016Z,7.60
2023-01-06T09:10:09.008Z,7.61
2023-01-06T09:11:08.998Z,7.64
2023-01-06T09:12:09.007Z,7.66
2023-01-06T09:13:09.004Z,7.66
2023-01-06T09:14:08.958Z,7.64
2023-01-06T09:15:08.956Z,7.68
2023-01-06T09:16:09.035Z,7.66
2023-01-06T09:17:08.950Z,7.68
2023-01-06T09:18:08.969Z,7.66
2023-01-06T09:19:08.932Z,7.68
2023-01-06T09:20:08.907Z,7.74
2023-01-06T09:21:09.005Z,7.71
2023-01-06T09:22:08.876Z,7.68
2023-01-06T09:23:08.865Z,7.69
2023-01-06T09:24:08.878Z,7.74
2023-01-06T09:25:08.866Z,7.64
2023-01-06T09:26:08.826Z,7.73
2023-01-06T09:27:08.866Z,7.73
2023-01-06T09:28:08.824Z,7.62
2023-01-06T09:29:08.803Z,7.73
2023-01-06T09:30:08.891Z,7.71
2023-01-06T09:31:08.888Z,7.64
2023-01-06T09:32:08.792Z,7.64
2023-01-06T09:33:08.755Z,7.71
2023-01-06T09:34:08.767Z,7.66
2023-01-06T09:35:08.812Z,7.64
2023-01-06T09:36:08.729Z,7.76
2023-01-06T09:37:08.746Z,7.71
2023-01-06T09:38:08.706Z,7.78
2023-01-06T09:39:08.719Z,7.71
2023-01-06T09:40:08.680Z,7.76
2023-01-06T09:41:08.673Z,7.78
2023-01-06T09:42:08.654Z,7.83
2023-01-06T09:43:08.656Z,7.77
2023-01-06T09:44:08.640Z,7.80
2023-01-06T09:45:08.651Z,7.76
2023-01-06T09:46:08.670Z,7.80
2023-01-06T09:47:08.607Z,7.76
2023-01-06T09:48:08.596Z,7.81
2023-01-06T09:49:08.583Z,7.76
2023-01-06T09:50:08.572Z,7.92
2023-01-06T09:51:08.582Z,7.87
2023-01-06T09:52:08.547Z,7.88
2023-01-06T09:53:08.587Z,7.88
2023-01-06T09:54:08.528Z,7.91
2023-01-06T09:55:08.525Z,7.84
2023-01-06T09:56:08.527Z,7.95
2023-01-06T09:57:08.521Z,7.86
2023-01-06T09:58:08.485Z,7.81
2023-01-06T09:59:08.483Z,7.94
2023-01-06T10:00:08.460Z,7.91
2023-01-06T10:01:08.533Z,7.94
2023-01-06T10:02:08.626Z,7.94
2023-01-06T10:03:08.445Z,7.91
2023-01-06T10:04:08.493Z,7.92
2023-01-06T10:05:08.416Z,7.92
2023-01-06T10:06:08.473Z,7.91
2023-01-06T10:07:08.419Z,7.95
2023-01-06T10:08:08.377Z,7.95
2023-01-06T10:09:08.486Z,7.95
2023-01-06T10:10:08.366Z,8.01
2023-01-06T10:11:08.352Z,7.94
2023-01-06T10:12:08.334Z,7.99
2023-01-06T10:13:08.345Z,8.01
2023-01-06T10:14:08.310Z,8.01
2023-01-06T10:15:08.304Z,8.02
2023-01-06T10:16:08.317Z,8.01
2023-01-06T10:17:08.286Z,8.13
2023-01-06T10:18:08.299Z,8.12
2023-01-06T10:19:08.282Z,7.99
2023-01-06T10:20:08.256Z,8.02
2023-01-06T10:21:08.246Z,8.10
2023-01-06T10:22:08.246Z,8.10
2023-01-06T10:23:08.238Z,8.09
2023-01-06T10:24:08.227Z,8.12
2023-01-06T10:25:08.316Z,8.12
2023-01-06T10:26:08.211Z,8.13
2023-01-06T10:27:08.944Z,8.13
2023-01-06T10:28:08.164Z,8.16
2023-01-06T10:29:08.151Z,8.14
2023-01-06T10:30:08.137Z,8.14
2023-01-06T10:31:08.223Z,8.17
2023-01-06T10:32:08.116Z,8.13
2023-01-06T10:33:08.110Z,8.06
2023-01-06T10:34:08.112Z,8.13
2023-01-06T10:35:08.091Z,8.23
2023-01-06T10:36:08.075Z,8.19
2023-01-06T10:37:08.065Z,8.20
2023-01-06T10:38:08.080Z,8.21
2023-01-06T10:39:08.043Z,8.24
2023-01-06T10:40:08.032Z,8.32
2023-01-06T10:41:08.144Z,8.31
2023-01-06T10:42:08.010Z,8.35
2023-01-06T10:43:08.024Z,8.26
2023-01-06T10:44:08.010Z,8.34
2023-01-06T10:45:07.977Z,8.31
2023-01-06T10:46:07.965Z,8.34
2023-01-06T10:47:07.956Z,8.32
2023-01-06T10:48:07.952Z,8.35
2023-01-06T10:49:07.970Z,8.32
2023-01-06T10:50:07.927Z,8.37
2023-01-06T10:51:07.918Z,8.41
2023-01-06T10:52:07.898Z,8.38
2023-01-06T10:53:07.911Z,8.37
2023-01-06T10:54:07.880Z,8.37
2023-01-06T10:55:07.888Z,8.42
2023-01-06T10:56:07.872Z,8.35
2023-01-06T10:57:07.981Z,8.41
2023-01-06T10:58:07.863Z,8.44
2023-01-06T10:59:07.828Z,8.44
2023-01-06T11:00:07.813Z,8.50
2023-01-06T11:01:07.951Z,8.39
2023-01-06T11:02:07.922Z,8.46
2023-01-06T11:03:32.487Z,8.42
2023-01-06T11:04:08.769Z,8.39
2023-01-06T11:05:07.759Z,8.47
2023-01-06T11:06:07.751Z,8.55
2023-01-06T11:07:09.595Z,8.53
2023-01-06T11:08:07.755Z,8.57
2023-01-06T11:09:07.729Z,8.52
2023-01-06T11:10:07.707Z,8.60
2023-01-06T11:11:08.094Z,8.59
2023-01-06T11:12:07.693Z,8.59
2023-01-06T11:13:07.864Z,8.59
2023-01-06T11:14:07.671Z,8.59
2023-01-06T11:15:07.661Z,8.62
2023-01-06T11:16:07.659Z,8.60
2023-01-06T11:17:07.635Z,8.65
2023-01-06T11:18:07.660Z,8.59
2023-01-06T11:19:07.632Z,8.63
2023-01-06T11:20:07.601Z,8.57
2023-01-06T11:21:07.596Z,8.65
2023-01-06T11:22:07.577Z,8.65
2023-01-06T11:23:07.563Z,8.72
2023-01-06T11:24:07.583Z,8.72
2023-01-06T11:25:07.542Z,8.72
2023-01-06T11:26:07.540Z,8.71
2023-01-06T11:27:07.525Z,8.71
2023-01-06T11:28:07.509Z,8.74
2023-01-06T11:29:07.651Z,8.75
2023-01-06T11:30:07.520Z,8.71
2023-01-06T11:31:07.478Z,8.78
2023-01-06T11:32:07.471Z,8.77
2023-01-06T11:33:07.471Z,8.70
2023-01-06T11:34:07.449Z,8.74
2023-01-06T11:35:07.456Z,8.77
2023-01-06T11:36:07.427Z,8.80
2023-01-06T11:37:07.410Z,8.80
2023-01-06T11:38:07.406Z,8.85
2023-01-06T11:39:07.395Z,8.85
2023-01-06T11:40:11.600Z,8.75
2023-01-06T11:41:07.372Z,8.78
2023-01-06T11:42:07.359Z,8.78
2023-01-06T11:43:07.350Z,8.88
2023-01-06T11:44:07.346Z,8.83
2023-01-06T11:45:07.468Z,8.89
2023-01-06T11:46:07.366Z,8.83
2023-01-06T11:47:07.306Z,8.92
2023-01-06T11:48:07.292Z,8.92
2023-01-06T11:49:07.291Z,8.90
2023-01-06T11:50:07.291Z,8.92
2023-01-06T11:51:07.292Z,8.89
2023-01-06T11:52:07.254Z,8.99
2023-01-06T11:53:07.240Z,8.93
2023-01-06T11:54:07.254Z,8.88
2023-01-06T11:55:07.251Z,8.89
2023-01-06T11:56:07.235Z,8.89
2023-01-06T11:57:07.199Z,9.01
2023-01-06T11:58:07.187Z,8.88
2023-01-06T11:59:07.178Z,8.93
2023-01-06T12:00:07.198Z,9.01
2023-01-06T12:01:07.394Z,8.98
2023-01-06T12:02:07.204Z,8.98
2023-01-06T12:03:07.143Z,9.06
2023-01-06T12:04:07.126Z,9.09
2023-01-06T12:05:07.147Z,9.08
2023-01-06T12:06:07.097Z,9.01
2023-01-06T12:07:07.111Z,9.09
2023-01-06T12:08:07.080Z,9.01
2023-01-06T12:09:07.063Z,9.04
2023-01-06T12:10:07.054Z,9.11
2023-01-06T12:11:07.043Z,9.08
2023-01-06T12:12:07.134Z,9.14
2023-01-06T12:13:07.037Z,9.12
2023-01-06T12:14:13.328Z,9.11
2023-01-06T12:15:08.011Z,9.08
2023-01-06T12:16:07.013Z,9.16
2023-01-06T12:17:07.217Z,9.14
2023-01-06T12:18:06.972Z,9.11
2023-01-06T12:19:06.952Z,9.09
2023-01-06T12:20:06.946Z,9.08
2023-01-06T12:21:06.962Z,9.22
2023-01-06T12:22:06.941Z,9.16
2023-01-06T12:23:06.923Z,9.22
2023-01-06T12:24:07.155Z,9.23
2023-01-06T12:25:06.899Z,9.14
2023-01-06T12:26:06.903Z,9.18
2023-01-06T12:27:06.906Z,9.18
2023-01-06T12:28:06.868Z,9.16
2023-01-06T12:29:06.849Z,9.16
2023-01-06T12:30:06.843Z,9.24
2023-01-06T12:31:06.917Z,9.23
2023-01-06T12:32:06.848Z,9.32
2023-01-06T12:33:06.938Z,9.30
2023-01-06T12:34:06.811Z,9.23
2023-01-06T12:35:06.785Z,9.32
2023-01-06T12:36:06.790Z,9.34
2023-01-06T12:37:06.783Z,9.32
2023-01-06T12:38:06.783Z,9.26
2023-01-06T12:39:06.755Z,9.29
2023-01-06T12:40:06.739Z,9.37
2023-01-06T12:41:06.719Z,9.41
2023-01-06T12:42:06.713Z,9.40
2023-01-06T12:43:06.731Z,9.29
2023-01-06T12:44:06.688Z,9.30
2023-01-06T12:45:06.700Z,9.40
2023-01-06T12:46:06.729Z,9.40
2023-01-06T12:47:06.658Z,9.27
2023-01-06T12:48:06.644Z,9.37
2023-01-06T12:49:06.653Z,9.29
2023-01-06T12:50:06.692Z,9.37
2023-01-06T12:51:06.622Z,9.36
2023-01-06T12:52:06.600Z,9.36
2023-01-06T12:53:12.871Z,9.40
2023-01-06T12:54:07.588Z,9.44
2023-01-06T12:55:06.587Z,9.45
2023-01-06T12:56:06.557Z,9.51
2023-01-06T12:57:06.549Z,9.44
2023-01-06T12:58:06.545Z,9.50
2023-01-06T12:59:06.544Z,9.44
2023-01-06T13:00:06.511Z,9.45
2023-01-06T13:01:06.740Z,9.44
2023-01-06T13:02:06.645Z,9.42
2023-01-06T13:03:06.478Z,9.44
2023-01-06T13:04:06.582Z,9.42
2023-01-06T13:05:06.568Z,9.50
2023-01-06T13:06:06.479Z,9.51
2023-01-06T13:07:06.432Z,9.50
2023-01-06T13:08:06.430Z,9.50
2023-01-06T13:09:06.483Z,9.51
2023-01-06T13:10:06.413Z,9.51
2023-01-06T13:11:06.392Z,9.47
2023-01-06T13:12:06.400Z,9.48
2023-01-06T13:13:06.374Z,9.55
2023-01-06T13:14:06.389Z,9.55
2023-01-06T13:15:06.349Z,9.52
2023-01-06T13:16:06.339Z,9.62
2023-01-06T13:17:06.327Z,9.57
2023-01-06T13:18:06.356Z,9.52